Weather History for KMQS - December, 2013

Change the Weather History Date:

Sunday, December 8, 2013

  Actual Average (KLNS) Record (KLNS)
Temperature  
Mean Temperature 28 °F -  
Max Temperature 30 °F 46 °F 70 °F (1980)
Min Temperature 26 °F 29 °F 8 °F (2002)
Degree Days  
Heating Degree Days 37    
Moisture  
Dew Point 24 °F    
Average Humidity 84    
Maximum Humidity 100    
Minimum Humidity 59    
Precipitation  
Precipitation 6.06 in - - ()
Sea Level Pressure  
Sea Level Pressure 30.49 in    
Wind  
Wind Speed 5 mph (NE)    
Max Wind Speed 14 mph    
Max Gust Speed 22 mph    
Visibility 6 miles    
Events Snow    
Averages and records for this station are not official NWS values.
T = Trace of Precipitation, MM = Missing Value Source: NWS Daily Summary

Daily Weather History Graph

Daily Weather History Graph

Search for Another Location

Airport or City:

Trip Planner

Search our weather history database for the weather conditions in past years. The results will help you decide how hot, cold, wet, or windy it might be!

Date:

Astronomy

Dec. 08, 2013 Rise Set
Actual Time 7:12 AM EST 4:38 PM EST
Civil Twilight 6:42 AM EST 5:08 PM EST
Nautical Twilight 6:08 AM EST 5:42 PM EST
Astronomical Twilight 5:35 AM EST 6:15 PM EST
Moon 11:32 AM EST (12/8) 11:24 PM EST (12/8)
Length of Visible Light 10h 25m
Length of Day
9h 25m
Waxing Crescent, 40% of the Moon is Illuminated
Dec 8
Waxing Crescent
Dec 9
First Quarter
Dec 17
Full
Dec 25
Last Quarter
Jan 1
New

Hourly Weather History & Observations

Time (EST) Temp. Windchill Dew Point Humidity Pressure Visibility Wind Dir Wind Speed Gust Speed Precip Events Conditions
12:15 AM 30.2 °F 23.4 °F 23.0 °F 75% 30.51 in 10.0 mi NNW 6.9 mph - N/A   Clear
12:35 AM 30.2 °F 25.4 °F 23.0 °F 75% 30.51 in 10.0 mi NNW 4.6 mph - N/A   Clear
12:55 AM 30.2 °F 23.4 °F 21.2 °F 69% 30.52 in 10.0 mi NNW 6.9 mph - N/A   Clear
1:15 AM 30.2 °F 26.7 °F 21.2 °F 69% 30.53 in 10.0 mi NNW 3.5 mph - N/A   Clear
1:35 AM 28.4 °F 22.2 °F 21.2 °F 74% 30.54 in 10.0 mi NNW 5.8 mph - N/A   Clear
1:55 AM 28.4 °F 24.6 °F 21.2 °F 74% 30.54 in 10.0 mi North 3.5 mph - N/A   Clear
2:15 AM 28.4 °F 22.2 °F 21.2 °F 74% 30.54 in 10.0 mi North 5.8 mph - N/A   Clear
2:35 AM 28.4 °F 21.2 °F 21.2 °F 74% 30.54 in 10.0 mi North 6.9 mph - N/A   Clear
2:55 AM 28.4 °F 22.2 °F 21.2 °F 74% 30.55 in 10.0 mi North 5.8 mph - N/A   Clear
3:15 AM 28.4 °F 20.4 °F 21.2 °F 74% 30.54 in 10.0 mi North 8.1 mph - N/A   Clear
3:35 AM 28.4 °F 20.4 °F 17.6 °F 64% 30.53 in 10.0 mi North 8.1 mph - N/A   Clear
3:55 AM 26.6 °F 20.0 °F 17.6 °F 69% 30.53 in 10.0 mi North 5.8 mph - N/A   Clear
4:15 AM 26.6 °F 22.6 °F 17.6 °F 69% 30.54 in 10.0 mi North 3.5 mph - N/A   Clear
4:35 AM 26.6 °F 19.1 °F 17.6 °F 69% 30.54 in 10.0 mi NNE 6.9 mph - N/A   Clear
4:55 AM 26.6 °F 19.1 °F 17.6 °F 69% 30.54 in 10.0 mi North 6.9 mph - N/A   Clear
5:15 AM 26.6 °F 20.0 °F 17.6 °F 69% 30.54 in 10.0 mi North 5.8 mph - N/A   Clear
5:35 AM 26.6 °F 21.2 °F 17.6 °F 69% 30.54 in 10.0 mi North 4.6 mph - N/A   Clear
5:55 AM 28.4 °F 23.3 °F 17.6 °F 64% 30.54 in 10.0 mi North 4.6 mph - N/A   Clear
6:15 AM 28.4 °F 22.2 °F 17.6 °F 64% 30.55 in 10.0 mi North 5.8 mph - N/A   Clear
6:35 AM 28.4 °F 23.3 °F 17.6 °F 64% 30.56 in 10.0 mi North 4.6 mph - N/A   Clear
6:55 AM 28.4 °F - 17.6 °F 64% 30.56 in 10.0 mi Calm Calm - N/A   Clear
7:15 AM 28.4 °F 24.6 °F 17.6 °F 64% 30.56 in 10.0 mi NNE 3.5 mph - N/A   Clear
7:35 AM 28.4 °F 24.6 °F 15.8 °F 59% 30.58 in 10.0 mi NNE 3.5 mph - N/A   Clear
7:55 AM 28.4 °F 24.6 °F 17.6 °F 64% 30.57 in 10.0 mi NNE 3.5 mph - N/A   Clear
8:15 AM 28.4 °F 24.6 °F 17.6 °F 64% 30.56 in 10.0 mi NE 3.5 mph - N/A   Clear
8:35 AM 28.4 °F 22.2 °F 17.6 °F 64% 30.54 in 10.0 mi NNE 5.8 mph - N/A   Clear
8:55 AM 28.4 °F 20.4 °F 17.6 °F 64% 30.54 in 10.0 mi NNE 8.1 mph - N/A   Clear
9:15 AM 28.4 °F 23.3 °F 17.6 °F 64% 30.55 in 10.0 mi NE 4.6 mph - N/A   Clear
9:35 AM 28.4 °F 24.6 °F 17.6 °F 64% 30.56 in 10.0 mi NE 3.5 mph - N/A   Clear
9:55 AM 28.4 °F 23.3 °F 17.6 °F 64% 30.58 in 10.0 mi ENE 4.6 mph - N/A   Partly Cloudy
10:15 AM 28.4 °F 23.3 °F 17.6 °F 64% 30.56 in 10.0 mi ENE 4.6 mph - N/A   Mostly Cloudy
10:35 AM 28.4 °F 23.3 °F 19.4 °F 69% 30.58 in 1.8 mi ESE 4.6 mph - 0.01 in Snow Light Snow
10:55 AM 28.4 °F 20.4 °F 21.2 °F 74% 30.57 in 1.5 mi East 8.1 mph - 0.07 in Snow Light Snow
11:15 AM 26.6 °F 21.2 °F 23.0 °F 86% 30.56 in 1.0 mi ENE 4.6 mph - 0.06 in Snow Light Snow
11:35 AM 26.6 °F 22.6 °F 23.0 °F 86% 30.54 in 1.2 mi ENE 3.5 mph - 0.19 in Snow Light Snow
11:55 AM 26.6 °F - 24.8 °F 93% 30.56 in 0.5 mi Calm Calm - 0.57 in Snow Snow
12:15 PM 26.6 °F 22.6 °F 26.6 °F 100% 30.51 in 0.5 mi ENE 3.5 mph - 0.30 in Snow Snow
12:35 PM 26.6 °F - 26.6 °F 100% 30.53 in 0.2 mi Calm Calm - 1.46 in Snow Heavy Snow
12:55 PM 26.6 °F 18.2 °F 26.6 °F 100% 30.51 in 0.2 mi East 8.1 mph - 2.53 in Snow Snow
1:15 PM 26.6 °F - 26.6 °F 100% 30.52 in 0.2 mi Calm Calm - 0.39 in Snow Light Snow
1:35 PM 28.4 °F - 26.6 °F 93% 30.50 in 0.5 mi Calm Calm - 0.69 in Snow Snow
1:55 PM 26.6 °F - 26.6 °F 100% 30.48 in 0.5 mi Calm Calm - 1.28 in Snow Snow
2:15 PM 28.4 °F 24.6 °F 26.6 °F 93% 30.46 in 0.8 mi ENE 3.5 mph - 0.26 in Snow Light Snow
2:35 PM 28.4 °F - 26.6 °F 93% 30.47 in 0.8 mi Calm Calm - 0.56 in Snow Light Snow
2:55 PM 26.6 °F - 26.6 °F 100% 30.48 in 1.8 mi Calm Calm - 0.79 in Snow Light Snow
3:15 PM 26.6 °F 22.6 °F 26.6 °F 100% 30.48 in 4.0 mi NE 3.5 mph - 0.02 in Snow Light Snow
3:35 PM 26.6 °F 21.2 °F 26.6 °F 100% 30.49 in 1.8 mi NNE 4.6 mph - 0.29 in Snow Light Snow
3:55 PM 26.6 °F 22.6 °F 26.6 °F 100% 30.48 in 1.5 mi NE 3.5 mph - 0.51 in Snow Light Snow
4:15 PM 26.6 °F - 26.6 °F 100% 30.48 in 1.0 mi Calm Calm - 0.11 in Snow Light Snow
4:35 PM 26.6 °F - 26.6 °F 100% 30.48 in 2.5 mi Calm Calm - 0.24 in Snow Light Snow
4:55 PM 26.6 °F 20.0 °F 26.6 °F 100% 30.46 in 4.0 mi ENE 5.8 mph - 0.26 in Snow Light Snow
5:15 PM 28.4 °F - 26.6 °F 93% 30.46 in 5.0 mi Calm Calm - 0.03 in Snow Light Snow
5:35 PM 28.4 °F - 26.6 °F 93% 30.45 in 5.0 mi Calm Calm - 0.04 in Snow Light Snow
5:55 PM 28.4 °F 24.6 °F 26.6 °F 93% 30.45 in 7.0 mi ENE 3.5 mph - 0.04 in Snow Light Snow
6:15 PM 28.4 °F 24.6 °F 26.6 °F 93% 30.46 in 10.0 mi NE 3.5 mph - N/A   Mostly Cloudy
6:35 PM 28.4 °F 24.6 °F 26.6 °F 93% 30.45 in 10.0 mi NE 3.5 mph - N/A   Overcast
6:55 PM 28.4 °F 23.3 °F 28.4 °F 100% 30.43 in 10.0 mi ENE 4.6 mph 18.4 mph N/A   Overcast
7:15 PM 28.4 °F 24.6 °F 28.4 °F 100% 30.44 in 7.0 mi NE 3.5 mph - N/A   Overcast
7:35 PM 28.4 °F 24.6 °F 28.4 °F 100% 30.42 in 5.0 mi NE 3.5 mph - N/A Snow Light Snow
7:55 PM 28.4 °F 21.2 °F 28.4 °F 100% 30.41 in 4.0 mi ENE 6.9 mph - N/A   Overcast
8:15 PM 28.4 °F 18.5 °F 28.4 °F 100% 30.40 in 2.5 mi ENE 11.5 mph 17.3 mph N/A   Overcast
8:35 PM 28.4 °F 20.4 °F 28.4 °F 100% 30.39 in 1.8 mi ENE 8.1 mph 16.1 mph N/A   Overcast
8:55 PM 28.4 °F 18.0 °F 28.4 °F 100% 30.37 in 2.0 mi East 12.7 mph 19.6 mph N/A   Overcast
9:15 PM 28.4 °F 17.5 °F 28.4 °F 100% 30.35 in 2.0 mi East 13.8 mph 21.9 mph N/A   Overcast
9:35 PM 28.4 °F 19.7 °F 28.4 °F 100% 30.35 in 2.0 mi ENE 9.2 mph 18.4 mph N/A   Overcast
9:55 PM 30.2 °F 26.7 °F 30.2 °F 100% 30.35 in 1.5 mi NE 3.5 mph - N/A   Overcast
10:15 PM 30.2 °F 25.4 °F 30.2 °F 100% 30.36 in 1.2 mi NE 4.6 mph - N/A Snow Light Snow
10:35 PM 30.2 °F 25.4 °F 30.2 °F 100% 30.35 in 1.2 mi NE 4.6 mph - N/A Snow Light Snow
10:55 PM 30.2 °F 25.4 °F 30.2 °F 100% 30.34 in 1.5 mi NE 4.6 mph - 0.01 in Snow Light Snow
11:15 PM 30.2 °F 25.4 °F 30.2 °F 100% 30.33 in 2.0 mi ENE 4.6 mph - N/A   Overcast
11:35 PM 30.2 °F 25.4 °F 30.2 °F 100% 30.31 in 2.0 mi ENE 4.6 mph - N/A   Overcast
11:55 PM 30.2 °F 25.4 °F 30.2 °F 100% 30.30 in 3.0 mi NE 4.6 mph - N/A   Overcast